createdAt,value
2018-06-07T06:45:08.298Z,0.00
2018-06-07T06:46:08.881Z,8.90
2018-06-07T06:47:09.483Z,8.50
2018-06-07T06:48:10.058Z,9.00
2018-06-07T06:49:10.790Z,8.60
2018-06-07T06:50:11.368Z,8.80
2018-06-07T06:51:11.959Z,8.70
2018-06-07T06:52:12.665Z,8.40
2018-06-07T06:53:13.305Z,10.50
2018-06-07T06:54:13.938Z,10.00
2018-06-07T06:55:14.545Z,9.80
2018-06-07T06:56:16.012Z,9.00
2018-06-07T06:57:23.050Z,8.60
2018-06-07T06:58:39.781Z,9.10
2018-06-07T06:59:40.446Z,9.10
2018-06-07T07:01:41.305Z,8.70
2018-06-07T07:02:41.929Z,8.90
2018-06-07T07:03:42.551Z,9.10
2018-06-07T07:04:43.339Z,8.80
2018-06-07T07:05:43.957Z,8.40
2018-06-07T07:06:44.553Z,8.30
2018-06-07T07:10:29.081Z,8.20
2018-06-07T07:11:56.543Z,8.60
2018-06-07T07:15:32.277Z,8.30
2018-06-07T07:17:54.668Z,8.30
2018-06-07T07:21:53.562Z,7.40
2018-06-07T07:23:57.688Z,6.40
2018-06-07T07:24:58.280Z,8.20
2018-06-07T07:25:58.868Z,7.80
2018-06-07T07:26:59.460Z,8.60
2018-06-07T07:28:00.114Z,8.40
2018-06-07T07:29:00.746Z,8.30
2018-06-07T07:30:01.352Z,8.20
2018-06-07T07:31:01.957Z,8.80
2018-06-07T07:32:02.640Z,8.00
2018-06-07T07:33:03.269Z,8.10
2018-06-07T07:34:03.941Z,8.40
2018-06-07T07:35:04.513Z,7.70
2018-06-07T07:36:05.095Z,8.00
2018-06-07T07:38:05.952Z,8.10
2018-06-07T07:39:06.610Z,8.70
2018-06-07T07:40:07.278Z,8.30
2018-06-07T07:41:07.865Z,7.80
2018-06-07T07:42:08.450Z,8.20
2018-06-07T07:44:09.348Z,7.80
2018-06-07T07:45:09.928Z,8.20
2018-06-07T07:46:10.594Z,7.80
2018-06-07T07:47:11.217Z,7.90
2018-06-07T07:48:11.814Z,7.50
2018-06-07T07:49:12.502Z,7.90
2018-06-07T07:50:13.128Z,7.70
2018-06-07T07:51:13.776Z,7.80
2018-06-07T07:52:14.583Z,6.60
2018-06-07T07:53:15.833Z,6.60
2018-06-07T07:54:16.492Z,7.20
2018-06-07T07:55:17.078Z,7.00
2018-06-07T07:56:17.713Z,7.50
2018-06-07T07:58:19.334Z,6.40
2018-06-07T07:59:19.973Z,6.30
2018-06-07T08:00:20.560Z,6.30
2018-06-07T08:01:21.128Z,7.00
2018-06-07T08:02:21.758Z,6.40
2018-06-07T08:03:22.356Z,6.40
2018-06-07T08:04:22.980Z,6.30
2018-06-07T08:05:23.652Z,6.60
2018-06-07T08:06:24.829Z,6.50
2018-06-07T08:07:25.418Z,6.30
2018-06-07T08:08:26.077Z,6.80
2018-06-07T08:09:26.672Z,6.80
2018-06-07T08:10:27.287Z,7.00
2018-06-07T08:11:27.933Z,6.70
2018-06-07T08:12:28.530Z,6.70
2018-06-07T08:13:29.131Z,6.30
2018-06-07T08:14:29.775Z,6.20
2018-06-07T08:15:30.500Z,6.60
2018-06-07T08:16:31.089Z,7.40
2018-06-07T08:17:31.736Z,7.20
2018-06-07T08:18:32.333Z,6.90
2018-06-07T08:20:33.208Z,6.90
2018-06-07T08:21:33.834Z,7.10
2018-06-07T08:23:19.761Z,7.00
2018-06-07T08:24:20.573Z,7.40
2018-06-07T08:25:21.205Z,7.40
2018-06-07T08:26:21.839Z,7.10
2018-06-07T08:27:22.484Z,7.20
2018-06-07T08:28:23.075Z,7.10
2018-06-07T08:29:23.662Z,6.90
2018-06-07T08:30:24.290Z,7.60
2018-06-07T08:31:24.889Z,7.60
2018-06-07T08:32:26.174Z,7.40
2018-06-07T08:33:26.828Z,7.30
2018-06-07T08:34:27.428Z,7.60
2018-06-07T08:35:28.061Z,7.40
2018-06-07T08:36:28.672Z,7.60
2018-06-07T08:37:29.262Z,7.70
2018-06-07T08:38:29.913Z,7.10
2018-06-07T08:39:30.531Z,7.60
2018-06-07T08:40:31.321Z,7.80
2018-06-07T08:41:31.985Z,7.50
2018-06-07T08:42:32.684Z,7.60
2018-06-07T08:43:33.481Z,7.70
2018-06-07T08:44:34.140Z,7.50
2018-06-07T08:45:34.733Z,8.40
2018-06-07T08:46:35.355Z,8.00
2018-06-07T08:47:36.030Z,8.00
2018-06-07T08:48:36.633Z,7.80
2018-06-07T08:49:37.254Z,7.70
2018-06-07T08:50:37.959Z,7.30
2018-06-07T08:51:38.582Z,8.10
2018-06-07T08:52:39.210Z,7.40
2018-06-07T08:53:39.847Z,7.70
2018-06-07T08:54:40.621Z,7.50
2018-06-07T08:55:41.251Z,7.10
2018-06-07T08:56:41.915Z,6.90
2018-06-07T08:57:42.511Z,7.10
2018-06-07T08:58:43.144Z,7.40
2018-06-07T08:59:43.766Z,7.50
2018-06-07T09:00:44.452Z,7.10
2018-06-07T09:01:46.135Z,7.40
2018-06-07T09:02:46.729Z,7.40
2018-06-07T09:03:47.310Z,7.10
2018-06-07T09:04:49.790Z,6.80
2018-06-07T09:05:50.500Z,8.20
2018-06-07T09:08:32.721Z,7.70
2018-06-07T09:08:42.907Z,7.70
2018-06-07T09:09:33.339Z,7.70
2018-06-07T09:10:34.033Z,7.70
2018-06-07T09:11:34.616Z,7.60
2018-06-07T09:12:35.770Z,7.60
2018-06-07T09:13:36.368Z,7.50
2018-06-07T09:14:36.975Z,8.30
2018-06-07T09:15:37.606Z,8.40
2018-06-07T09:16:38.838Z,8.20
2018-06-07T09:17:40.553Z,8.20
2018-06-07T09:18:41.248Z,7.80
2018-06-07T09:19:59.499Z,8.10
2018-06-07T09:21:00.205Z,8.40
2018-06-07T09:22:00.810Z,8.00
2018-06-07T09:23:09.183Z,8.10
2018-06-07T09:24:09.851Z,7.90
2018-06-07T09:25:10.987Z,7.50
2018-06-07T09:26:11.619Z,7.10
2018-06-07T09:27:12.253Z,8.00
2018-06-07T09:28:12.929Z,7.50
2018-06-07T09:29:17.651Z,7.50
2018-06-07T09:30:18.272Z,7.50
2018-06-07T09:31:18.907Z,7.50
2018-06-07T09:32:19.527Z,7.90
2018-06-07T09:33:20.760Z,7.60
2018-06-07T09:34:21.432Z,8.20
2018-06-07T09:35:22.197Z,8.20
2018-06-07T09:36:24.694Z,8.60
2018-06-07T09:37:25.390Z,9.10
2018-06-07T09:38:26.932Z,8.00
2018-06-07T09:39:27.517Z,8.30
2018-06-07T09:40:28.319Z,8.10
2018-06-07T09:41:28.952Z,8.50
2018-06-07T09:42:29.716Z,8.40
2018-06-07T09:43:30.329Z,7.60
2018-06-07T09:44:30.976Z,7.80
2018-06-07T09:45:31.571Z,7.50
2018-06-07T09:46:32.227Z,7.50
2018-06-07T09:47:32.887Z,7.40
2018-06-07T09:48:33.787Z,7.40
2018-06-07T09:49:34.432Z,7.90
2018-06-07T09:50:35.557Z,7.70
2018-06-07T09:51:36.193Z,7.60
2018-06-07T09:52:36.869Z,7.40
2018-06-07T09:53:37.485Z,7.70
2018-06-07T09:54:38.083Z,8.10
2018-06-07T09:55:38.680Z,7.60
2018-06-07T09:56:41.032Z,8.40
2018-06-07T09:57:41.613Z,7.60
2018-06-07T09:58:52.739Z,8.40
2018-06-07T10:00:53.594Z,7.60
2018-06-07T10:01:54.215Z,8.00
2018-06-07T10:03:55.130Z,7.70
2018-06-07T10:04:55.755Z,7.20
2018-06-07T10:05:56.394Z,8.30
2018-06-07T10:06:57.085Z,7.70
2018-06-07T10:07:57.664Z,8.60
2018-06-07T10:09:00.207Z,8.90
2018-06-07T10:10:00.852Z,9.50
2018-06-07T10:12:01.845Z,8.60
2018-06-07T10:13:02.409Z,9.00
2018-06-07T10:14:03.007Z,9.60
2018-06-07T10:15:04.184Z,10.10
2018-06-07T10:16:04.931Z,10.20
2018-06-07T10:17:07.992Z,10.40
2018-06-07T10:18:10.407Z,10.40
2018-06-07T10:19:10.988Z,9.90
2018-06-07T10:20:14.653Z,9.20
2018-06-07T10:21:15.321Z,8.50
2018-06-07T10:22:15.943Z,9.40
2018-06-07T10:23:16.580Z,9.00
2018-06-07T10:24:17.340Z,8.30
2018-06-07T10:25:33.993Z,8.50
2018-06-07T10:26:34.600Z,8.50
2018-06-07T10:27:35.208Z,8.30
2018-06-07T10:28:35.803Z,8.20
2018-06-07T10:29:36.589Z,9.10
2018-06-07T10:30:37.199Z,9.40
2018-06-07T10:31:38.621Z,9.40
2018-06-07T10:32:39.183Z,9.50
2018-06-07T10:33:40.916Z,9.70
2018-06-07T10:34:41.492Z,9.10
2018-06-07T10:35:42.087Z,9.80
2018-06-07T10:36:42.677Z,9.40
2018-06-07T10:37:43.285Z,9.30
2018-06-07T10:38:44.662Z,9.40
2018-06-07T10:39:45.284Z,9.80
2018-06-07T10:40:46.753Z,9.80
2018-06-07T10:41:47.313Z,9.20
2018-06-07T10:43:48.217Z,9.10
2018-06-07T10:44:48.887Z,9.10
2018-06-07T10:46:49.871Z,8.90
2018-06-07T10:47:50.442Z,9.10
2018-06-07T10:48:51.260Z,8.40
2018-06-07T10:49:52.415Z,8.60
2018-06-07T10:50:53.012Z,9.40
2018-06-07T10:51:53.659Z,9.50
2018-06-07T10:52:54.249Z,8.90
2018-06-07T10:53:54.888Z,8.90
2018-06-07T10:54:55.464Z,9.00
2018-06-07T10:55:56.077Z,8.50
2018-06-07T10:56:56.747Z,9.40
2018-06-07T10:57:57.335Z,8.20
2018-06-07T10:58:57.959Z,8.80
2018-06-07T10:59:58.851Z,8.90
2018-06-07T11:00:59.480Z,8.70
2018-06-07T11:02:00.202Z,8.80
2018-06-07T11:03:02.248Z,8.80
2018-06-07T11:04:02.901Z,8.90
2018-06-07T11:06:04.558Z,8.70
2018-06-07T11:08:05.624Z,8.70
2018-06-07T11:09:14.275Z,8.70
2018-06-07T11:10:15.016Z,8.20
2018-06-07T11:11:15.586Z,8.50
2018-06-07T11:12:16.475Z,9.00
2018-06-07T11:13:17.046Z,8.40
2018-06-07T11:14:17.672Z,8.80
2018-06-07T11:15:18.335Z,8.60
2018-06-07T11:16:18.922Z,8.20
2018-06-07T11:17:19.494Z,8.80
2018-06-07T11:18:20.151Z,8.70
2018-06-07T11:19:20.834Z,7.70
2018-06-07T11:20:21.448Z,8.40
2018-06-07T11:21:22.813Z,8.60
2018-06-07T11:22:23.497Z,9.00
2018-06-07T11:23:24.072Z,8.70
2018-06-07T11:24:25.405Z,8.30
2018-06-07T11:25:25.985Z,9.30
2018-06-07T11:26:27.332Z,9.20
2018-06-07T11:27:27.925Z,9.00
2018-06-07T11:28:28.494Z,9.80
2018-06-07T11:29:29.101Z,9.00
2018-06-07T11:30:29.829Z,8.10
2018-06-07T11:31:30.452Z,8.50
2018-06-07T11:32:31.197Z,8.60
2018-06-07T11:33:31.792Z,8.50
2018-06-07T11:34:32.432Z,7.70
2018-06-07T11:35:33.015Z,8.10
2018-06-07T11:37:33.870Z,8.50
2018-06-07T11:38:35.038Z,8.50
2018-06-07T11:39:35.726Z,9.40
2018-06-07T11:41:36.658Z,8.60
2018-06-07T11:42:37.399Z,8.50
2018-06-07T11:43:37.980Z,8.30
2018-06-07T11:44:38.670Z,8.30
2018-06-07T11:46:39.541Z,8.40
2018-06-07T11:47:40.151Z,8.70
2018-06-07T11:48:40.745Z,8.20
2018-06-07T11:49:41.352Z,8.10
2018-06-07T11:50:41.963Z,8.00
2018-06-07T11:51:42.613Z,7.90
2018-06-07T11:53:43.488Z,8.10
2018-06-07T11:54:44.096Z,8.10
2018-06-07T11:55:44.707Z,8.40
2018-06-07T11:56:45.355Z,8.30
2018-06-07T11:57:46.160Z,8.20
2018-06-07T11:58:46.789Z,8.00
2018-06-07T11:59:47.407Z,7.90
2018-06-07T12:00:48.014Z,7.50
2018-06-07T12:01:48.588Z,8.00
2018-06-07T12:02:49.259Z,7.60
2018-06-07T12:03:50.144Z,7.70
2018-06-07T12:04:50.822Z,7.30
2018-06-07T12:05:51.405Z,7.60
2018-06-07T12:06:52.002Z,7.40
2018-06-07T12:07:52.631Z,7.80
2018-06-07T12:08:53.256Z,7.20
2018-06-07T12:09:53.849Z,7.50
2018-06-07T12:10:55.720Z,7.30
2018-06-07T12:11:56.336Z,7.50
2018-06-07T12:12:57.635Z,7.50
2018-06-07T12:13:58.228Z,6.90
2018-06-07T12:14:58.982Z,7.80
2018-06-07T12:16:00.229Z,7.30
2018-06-07T12:17:00.803Z,7.60
2018-06-07T12:18:01.426Z,7.30
2018-06-07T12:19:02.090Z,7.30
2018-06-07T12:20:02.705Z,7.20
2018-06-07T12:21:03.292Z,7.10
2018-06-07T12:22:03.887Z,7.40
2018-06-07T12:23:04.508Z,7.30
2018-06-07T12:24:05.086Z,7.50
2018-06-07T12:25:05.706Z,7.60
2018-06-07T12:26:06.418Z,7.20
2018-06-07T12:27:06.996Z,7.20
2018-06-07T12:28:07.620Z,6.80
2018-06-07T12:29:08.204Z,7.50
2018-06-07T12:30:08.828Z,7.70
2018-06-07T12:31:09.399Z,7.90
2018-06-07T12:32:10.132Z,8.40
2018-06-07T12:33:20.518Z,8.20
2018-06-07T12:34:21.138Z,8.20
2018-06-07T12:35:21.752Z,8.10
2018-06-07T12:36:22.330Z,7.60
2018-06-07T12:37:22.907Z,7.80
2018-06-07T12:38:23.502Z,7.90
2018-06-07T12:39:24.119Z,7.80
2018-06-07T12:40:24.800Z,7.70
2018-06-07T12:41:25.369Z,7.80
2018-06-07T12:42:25.962Z,9.30
2018-06-07T12:43:26.554Z,9.10
2018-06-07T12:44:27.180Z,7.50
2018-06-07T12:45:27.898Z,7.60
2018-06-07T12:46:28.542Z,7.70
2018-06-07T12:47:29.222Z,7.60
2018-06-07T12:48:29.938Z,7.70
2018-06-07T12:49:31.351Z,7.00
2018-06-07T12:50:31.936Z,7.50
2018-06-07T12:51:32.559Z,7.70
2018-06-07T12:52:33.170Z,7.60
2018-06-07T12:53:33.833Z,7.70
2018-06-07T12:54:35.066Z,7.60
2018-06-07T12:55:35.679Z,7.50
2018-06-07T12:56:36.349Z,7.70
2018-06-07T12:57:37.032Z,7.80
2018-06-07T12:58:37.715Z,8.10
2018-06-07T12:59:38.358Z,7.90
2018-06-07T13:00:38.970Z,7.50
2018-06-07T13:01:39.867Z,7.90
2018-06-07T13:02:40.492Z,7.80
2018-06-07T13:03:41.412Z,7.50
2018-06-07T13:04:41.988Z,7.20
2018-06-07T13:05:42.601Z,7.10
2018-06-07T13:06:43.206Z,7.10
2018-06-07T13:07:43.902Z,7.20
2018-06-07T13:08:45.125Z,7.70
2018-06-07T13:09:45.738Z,7.50
2018-06-07T13:10:46.421Z,8.40
2018-06-07T13:12:10.792Z,8.60
2018-06-07T13:13:11.399Z,8.60
2018-06-07T13:14:12.147Z,7.10
2018-06-07T13:15:12.826Z,7.50
2018-06-07T13:16:13.416Z,7.30
2018-06-07T13:17:14.154Z,7.50
2018-06-07T13:18:15.518Z,8.40
2018-06-07T13:19:16.320Z,7.60
2018-06-07T13:20:16.965Z,8.20
2018-06-07T13:21:17.563Z,7.70
2018-06-07T13:22:18.187Z,7.10
2018-06-07T13:23:18.797Z,7.10
2018-06-07T13:24:19.472Z,7.50
2018-06-07T13:25:20.054Z,7.30
2018-06-07T13:26:20.728Z,7.40
2018-06-07T13:27:21.352Z,7.60
2018-06-07T13:28:21.958Z,7.30
2018-06-07T13:29:22.548Z,7.60
2018-06-07T13:30:23.207Z,7.50
2018-06-07T13:31:23.802Z,7.30
2018-06-07T13:32:25.151Z,7.10
2018-06-07T13:33:26.444Z,7.30
2018-06-07T13:34:27.074Z,7.00
2018-06-07T13:35:27.683Z,7.20
2018-06-07T13:36:28.320Z,7.20
2018-06-07T13:37:28.928Z,7.40
2018-06-07T13:38:29.623Z,7.00
2018-06-07T13:39:30.245Z,7.30
2018-06-07T13:40:30.851Z,7.30
2018-06-07T13:41:31.450Z,7.70
2018-06-07T13:42:32.039Z,7.40
2018-06-07T13:43:32.663Z,7.30
2018-06-07T13:44:33.291Z,8.10
2018-06-07T13:45:33.903Z,7.40
2018-06-07T13:46:34.546Z,7.80
2018-06-07T13:48:35.439Z,7.60
2018-06-07T13:49:36.106Z,7.30
2018-06-07T13:50:36.786Z,7.10
2018-06-07T13:51:37.849Z,7.50
2018-06-07T13:52:38.521Z,7.30
2018-06-07T13:53:39.871Z,7.30
2018-06-07T13:54:40.522Z,7.10
2018-06-07T13:55:41.121Z,6.80
2018-06-07T13:56:41.867Z,7.20
2018-06-07T13:57:42.519Z,7.70
2018-06-07T13:58:43.210Z,7.10
2018-06-07T13:59:43.823Z,6.70
2018-06-07T14:00:44.531Z,6.90
2018-06-07T14:01:45.226Z,6.60
2018-06-07T14:02:45.916Z,6.80
2018-06-07T14:03:46.509Z,6.80
2018-06-07T14:04:47.093Z,7.50
2018-06-07T14:05:47.711Z,7.20
2018-06-07T14:06:48.332Z,7.30
2018-06-07T14:07:48.970Z,6.70
2018-06-07T14:08:49.577Z,7.00
2018-06-07T14:09:50.172Z,6.80
2018-06-07T14:10:50.819Z,7.00
2018-06-07T14:11:51.553Z,6.60
2018-06-07T14:12:52.161Z,6.90
2018-06-07T14:13:52.837Z,7.20
2018-06-07T14:14:53.504Z,6.60
2018-06-07T14:15:54.095Z,6.60
2018-06-07T14:16:54.743Z,6.80
2018-06-07T14:17:55.348Z,7.00
2018-06-07T14:18:55.988Z,6.90
2018-06-07T14:19:56.574Z,7.10
2018-06-07T14:20:57.196Z,7.10
2018-06-07T14:21:57.845Z,7.20
2018-06-07T14:23:32.448Z,7.20
2018-06-07T14:24:33.007Z,6.70
2018-06-07T14:25:33.585Z,6.50
2018-06-07T14:26:34.266Z,6.60
2018-06-07T14:29:44.319Z,6.70
2018-06-07T14:30:44.983Z,6.80
2018-06-07T14:31:45.576Z,6.70
2018-06-07T14:32:46.194Z,6.70
2018-06-07T14:33:46.772Z,6.80
2018-06-07T14:34:47.413Z,6.80
2018-06-07T14:35:48.002Z,6.40
2018-06-07T14:36:49.351Z,7.20
2018-06-07T14:37:50.047Z,6.90
2018-06-07T14:38:50.627Z,7.00
2018-06-07T14:39:51.254Z,6.80
2018-06-07T14:40:51.851Z,6.70
2018-06-07T14:41:52.469Z,6.90
2018-06-07T14:42:53.156Z,6.90
2018-06-07T14:44:35.274Z,7.30
2018-06-07T14:45:36.598Z,6.80
2018-06-07T14:46:37.230Z,7.10
2018-06-07T14:47:37.847Z,7.00
2018-06-07T14:48:38.412Z,7.10
2018-06-07T14:49:39.036Z,6.60
2018-06-07T14:50:39.621Z,6.90
2018-06-07T14:51:40.272Z,6.50
2018-06-07T14:52:40.911Z,6.80
2018-06-07T14:53:41.531Z,6.80
2018-06-07T14:54:42.118Z,6.90
2018-06-07T14:55:42.730Z,6.60
2018-06-07T14:56:43.412Z,6.60
2018-06-07T14:57:44.042Z,6.80
2018-06-07T14:58:44.619Z,6.80
2018-06-07T14:59:45.213Z,6.80
2018-06-07T15:01:46.085Z,6.70
2018-06-07T15:02:46.686Z,7.00
2018-06-07T15:03:47.443Z,6.80
2018-06-07T15:04:48.041Z,6.80
2018-06-07T15:05:48.711Z,6.70
2018-06-07T15:06:49.292Z,6.90
2018-06-07T15:08:50.206Z,7.20
2018-06-07T15:09:50.833Z,7.20
2018-06-07T15:10:51.446Z,6.90
2018-06-07T15:11:52.074Z,6.60
2018-06-07T15:12:53.335Z,7.10
2018-06-07T15:13:54.083Z,6.50
2018-06-07T15:14:54.736Z,6.40
2018-06-07T15:15:55.314Z,6.50
2018-06-07T15:16:55.888Z,6.80
2018-06-07T15:17:56.494Z,6.70
2018-06-07T15:19:57.314Z,6.90
2018-06-07T15:20:57.942Z,7.10
2018-06-07T15:21:58.508Z,6.70
2018-06-07T15:22:59.154Z,6.60
2018-06-07T15:23:59.776Z,6.80
2018-06-07T15:25:00.387Z,7.10
2018-06-07T15:26:00.978Z,6.70
2018-06-07T15:27:01.946Z,6.70
2018-06-07T15:28:02.654Z,6.60
2018-06-07T15:29:03.270Z,6.90
2018-06-07T15:31:04.178Z,6.60
2018-06-07T15:32:04.772Z,6.90
2018-06-07T15:33:05.379Z,7.00
2018-06-07T15:34:05.975Z,6.30
2018-06-07T15:35:06.572Z,6.60
2018-06-07T15:36:07.304Z,6.60
2018-06-07T15:37:07.963Z,7.00
2018-06-07T15:38:08.559Z,6.60
2018-06-07T15:39:09.221Z,6.80
2018-06-07T15:40:09.821Z,6.90
2018-06-07T15:41:10.430Z,7.00
2018-06-07T15:42:11.071Z,6.60
2018-06-07T15:43:11.645Z,6.50
2018-06-07T15:44:12.271Z,6.70
2018-06-07T15:46:13.263Z,5.90
2018-06-07T15:47:13.840Z,6.70
2018-06-07T15:49:14.723Z,6.10
2018-06-07T15:50:15.292Z,6.70
2018-06-07T15:51:15.919Z,6.30
2018-06-07T15:52:16.616Z,6.90
2018-06-07T15:53:17.203Z,6.70
2018-06-07T15:54:17.877Z,6.60
2018-06-07T15:55:18.571Z,6.80
2018-06-07T15:56:19.299Z,6.60
2018-06-07T15:57:19.984Z,6.70
2018-06-07T15:58:20.552Z,6.20
2018-06-07T15:59:21.268Z,6.40
2018-06-07T16:00:21.876Z,6.00
2018-06-07T16:01:22.438Z,6.30
2018-06-07T16:02:23.074Z,6.30
2018-06-07T16:03:23.674Z,6.40
2018-06-07T16:04:24.468Z,6.50
2018-06-07T16:05:25.057Z,6.50
2018-06-07T16:06:26.205Z,6.40
2018-06-07T16:07:26.847Z,6.20
2018-06-07T16:08:27.446Z,6.50
2018-06-07T16:09:28.050Z,6.40
2018-06-07T16:10:28.663Z,6.20
2018-06-07T16:11:29.303Z,6.40
2018-06-07T16:12:29.936Z,6.30
2018-06-07T16:13:30.947Z,6.70
2018-06-07T16:14:31.541Z,6.70
2018-06-07T16:15:32.175Z,6.40
2018-06-07T16:16:32.834Z,6.30
2018-06-07T16:18:33.735Z,6.80
2018-06-07T16:19:34.458Z,6.30
2018-06-07T16:20:35.103Z,6.30
2018-06-07T16:21:35.695Z,6.40
2018-06-07T16:22:36.296Z,6.50
2018-06-07T16:23:36.873Z,6.10
2018-06-07T16:24:37.497Z,6.10
2018-06-07T16:25:38.280Z,6.50
2018-06-07T16:26:38.915Z,6.10
2018-06-07T16:27:39.503Z,6.30
2018-06-07T16:28:40.115Z,6.30
2018-06-07T16:29:40.714Z,6.20
2018-06-07T16:30:41.386Z,6.20
2018-06-07T16:31:41.965Z,6.20
2018-06-07T16:32:42.539Z,6.50
2018-06-07T16:33:44.109Z,6.70
2018-06-07T16:34:44.750Z,6.60
2018-06-07T16:35:45.386Z,6.30
2018-06-07T16:36:45.974Z,6.40
2018-06-07T16:37:46.530Z,6.50
2018-06-07T16:38:47.130Z,6.30
2018-06-07T16:39:47.772Z,6.40
2018-06-07T16:40:48.405Z,6.90
2018-06-07T16:41:48.966Z,6.20
2018-06-07T16:42:49.547Z,6.00
2018-06-07T16:43:50.108Z,6.10
2018-06-07T16:44:50.806Z,6.20
2018-06-07T16:45:51.455Z,6.20
2018-06-07T16:46:52.057Z,6.30
2018-06-07T16:47:53.587Z,6.70
2018-06-07T16:49:54.492Z,6.70
2018-06-07T16:50:55.110Z,6.40
2018-06-07T16:51:55.720Z,6.60
2018-06-07T16:52:56.418Z,6.70
2018-06-07T16:53:56.989Z,6.70
2018-06-07T16:54:57.693Z,6.30
2018-06-07T16:55:58.393Z,6.90
2018-06-07T16:56:59.040Z,6.70
2018-06-07T16:57:59.645Z,6.70
2018-06-07T16:59:00.301Z,6.80
2018-06-07T17:00:00.967Z,6.20
2018-06-07T17:01:01.593Z,6.80
2018-06-07T17:02:02.220Z,6.90
2018-06-07T17:03:02.846Z,6.80
2018-06-07T17:04:03.633Z,6.90
2018-06-07T17:05:04.827Z,7.00
2018-06-07T17:06:05.435Z,6.40
2018-06-07T17:07:06.069Z,6.70
2018-06-07T17:08:06.666Z,6.70
2018-06-07T17:09:07.307Z,6.60
2018-06-07T17:10:07.936Z,6.80
2018-06-07T17:11:08.614Z,6.60
2018-06-07T17:12:09.290Z,6.80
